createdAt,value
2023-01-29T00:01:55.595Z,2.43
2023-01-29T00:04:22.753Z,2.34
2023-01-29T00:06:49.317Z,2.04
2023-01-29T00:09:15.871Z,2.19
2023-01-29T00:11:42.358Z,2.22
2023-01-29T00:14:09.246Z,2.40
2023-01-29T00:16:35.816Z,1.95
2023-01-29T00:19:03.736Z,1.96
2023-01-29T00:21:31.168Z,2.00
2023-01-29T00:23:58.370Z,2.12
2023-01-29T00:26:26.034Z,2.26
2023-01-29T00:28:54.431Z,2.29
2023-01-29T00:31:27.291Z,1.93
2023-01-29T00:33:54.040Z,2.14
2023-01-29T00:36:21.970Z,2.31
2023-01-29T00:38:53.859Z,2.41
2023-01-29T00:41:21.707Z,2.54
2023-01-29T00:43:48.287Z,2.80
2023-01-29T00:46:14.871Z,2.85
2023-01-29T00:48:41.565Z,3.15
2023-01-29T00:51:08.090Z,2.81
2023-01-29T00:53:34.579Z,2.97
2023-01-29T00:56:01.121Z,2.76
2023-01-29T00:58:29.789Z,2.67
2023-01-29T01:00:56.581Z,2.66
2023-01-29T01:03:23.186Z,2.65
2023-01-29T01:05:49.710Z,2.64
2023-01-29T01:08:16.381Z,2.49
2023-01-29T01:10:42.899Z,2.45
2023-01-29T01:13:09.463Z,2.31
2023-01-29T01:15:40.052Z,2.77
2023-01-29T01:18:06.666Z,2.86
2023-01-29T01:20:34.864Z,2.72
2023-01-29T01:23:01.363Z,2.67
2023-01-29T01:25:28.176Z,2.86
2023-01-29T01:27:56.882Z,2.51
2023-01-29T01:30:24.045Z,2.62
2023-01-29T01:32:51.688Z,2.76
2023-01-29T01:35:18.664Z,2.48
2023-01-29T01:37:45.231Z,2.53
2023-01-29T01:40:19.047Z,2.56
2023-01-29T01:42:55.807Z,2.71
2023-01-29T01:45:34.733Z,2.70
2023-01-29T01:48:07.755Z,2.79
2023-01-29T01:50:52.134Z,2.94
2023-01-29T01:53:24.807Z,2.52
2023-01-29T01:56:02.049Z,2.51
2023-01-29T01:58:36.812Z,2.27
2023-01-29T02:01:07.794Z,2.45
2023-01-29T02:03:45.637Z,2.31
2023-01-29T02:06:12.283Z,2.37
2023-01-29T02:08:52.667Z,2.48
2023-01-29T02:11:19.873Z,2.71
2023-01-29T02:13:46.608Z,2.56
2023-01-29T02:16:13.060Z,2.61
2023-01-29T02:18:39.669Z,2.22
2023-01-29T02:21:40.261Z,2.72
2023-01-29T02:24:31.115Z,2.83
2023-01-29T02:27:09.352Z,2.50
2023-01-29T02:29:44.502Z,2.77
2023-01-29T02:32:29.760Z,3.14
2023-01-29T02:35:10.186Z,3.34
2023-01-29T02:38:01.606Z,3.30
2023-01-29T02:40:41.031Z,3.56
2023-01-29T02:43:33.037Z,2.97
2023-01-29T02:46:11.684Z,2.97
2023-01-29T02:48:59.501Z,3.10
2023-01-29T02:51:35.708Z,3.06
2023-01-29T02:54:14.364Z,3.11
2023-01-29T02:56:53.787Z,3.21
2023-01-29T02:59:28.257Z,3.29
2023-01-29T03:02:07.561Z,3.30
2023-01-29T03:04:41.754Z,3.19
2023-01-29T03:07:17.471Z,3.04
2023-01-29T03:09:50.506Z,2.76
2023-01-29T03:12:28.424Z,2.09
2023-01-29T03:14:59.852Z,2.37
2023-01-29T03:17:33.597Z,2.30
2023-01-29T03:20:04.799Z,2.27
2023-01-29T03:22:32.933Z,2.49
2023-01-29T03:25:04.581Z,2.45
2023-01-29T03:27:38.485Z,2.53
2023-01-29T03:30:12.089Z,2.84
2023-01-29T03:32:39.049Z,2.98
2023-01-29T03:35:10.345Z,2.78
2023-01-29T03:37:45.932Z,2.95
2023-01-29T03:40:13.694Z,3.08
2023-01-29T03:43:03.496Z,3.04
2023-01-29T03:45:51.745Z,2.59
2023-01-29T03:48:33.784Z,2.78
2023-01-29T03:51:22.211Z,2.65
2023-01-29T03:54:01.091Z,2.25
2023-01-29T03:56:33.562Z,2.38
2023-01-29T03:59:12.401Z,2.23
2023-01-29T04:01:46.305Z,2.29
2023-01-29T04:04:24.350Z,2.56
2023-01-29T04:06:56.486Z,2.44
2023-01-29T04:09:40.202Z,2.24
2023-01-29T04:12:11.381Z,2.14
2023-01-29T04:14:39.100Z,2.21
2023-01-29T04:17:16.460Z,2.34
2023-01-29T04:19:43.840Z,2.40
2023-01-29T04:22:26.084Z,2.48
2023-01-29T04:24:52.996Z,2.44
2023-01-29T04:27:52.299Z,2.17
2023-01-29T04:30:54.055Z,2.14
2023-01-29T04:33:28.044Z,2.44
2023-01-29T04:36:13.151Z,2.68
2023-01-29T04:38:42.390Z,2.66
2023-01-29T04:41:31.757Z,2.69
2023-01-29T04:44:14.792Z,2.15
2023-01-29T04:46:52.320Z,1.84
2023-01-29T04:49:35.173Z,2.08
2023-01-29T04:52:20.026Z,2.43
2023-01-29T04:55:16.699Z,2.53
2023-01-29T04:58:03.085Z,1.97
2023-01-29T05:00:36.981Z,2.65
2023-01-29T05:03:04.772Z,2.29
2023-01-29T05:05:31.357Z,2.09
2023-01-29T05:07:59.469Z,2.21
2023-01-29T05:10:26.625Z,2.44
2023-01-29T05:13:01.241Z,2.55
2023-01-29T05:15:41.771Z,2.69
2023-01-29T05:18:08.863Z,2.45
2023-01-29T05:20:40.034Z,2.83
2023-01-29T05:23:18.133Z,3.00
2023-01-29T05:25:45.271Z,2.99
2023-01-29T05:28:11.813Z,2.81
2023-01-29T05:30:39.946Z,2.62
2023-01-29T05:33:24.174Z,2.77
2023-01-29T05:35:51.020Z,2.88
2023-01-29T05:38:18.776Z,2.78
2023-01-29T05:40:45.698Z,2.95
2023-01-29T05:43:17.799Z,3.09
2023-01-29T05:45:55.298Z,2.67
2023-01-29T05:48:22.094Z,2.81
2023-01-29T05:50:49.447Z,2.89
2023-01-29T05:53:16.025Z,3.07
2023-01-29T05:55:47.207Z,2.84
2023-01-29T05:58:14.372Z,2.86
2023-01-29T06:00:41.943Z,2.52
2023-01-29T06:03:08.496Z,2.50
2023-01-29T06:05:38.642Z,2.40
2023-01-29T06:08:05.829Z,2.71
2023-01-29T06:10:32.854Z,2.38
2023-01-29T06:12:59.365Z,2.77
2023-01-29T06:15:26.090Z,2.45
2023-01-29T06:17:56.655Z,2.92
2023-01-29T06:20:24.151Z,3.14
2023-01-29T06:22:50.643Z,3.25
2023-01-29T06:25:17.174Z,3.52
2023-01-29T06:27:43.719Z,3.58
2023-01-29T06:30:10.707Z,3.40
2023-01-29T06:32:37.229Z,3.29
2023-01-29T06:35:04.067Z,3.30
2023-01-29T06:37:30.551Z,3.64
2023-01-29T06:39:57.060Z,3.60
2023-01-29T06:42:23.628Z,3.53
2023-01-29T06:44:50.087Z,3.42
2023-01-29T06:47:16.557Z,3.34
2023-01-29T06:49:43.122Z,2.86
2023-01-29T06:52:09.599Z,2.45
2023-01-29T06:54:36.121Z,2.64
2023-01-29T06:57:02.718Z,2.69
2023-01-29T06:59:29.256Z,2.71
2023-01-29T07:01:55.838Z,2.56
2023-01-29T07:04:22.450Z,2.68
2023-01-29T07:06:48.992Z,3.00
2023-01-29T07:09:15.471Z,3.32
2023-01-29T07:11:42.176Z,2.67
2023-01-29T07:14:08.713Z,2.91
2023-01-29T07:16:35.273Z,2.67
2023-01-29T07:19:01.904Z,2.54
2023-01-29T07:21:28.396Z,2.51
2023-01-29T07:23:54.985Z,2.67
2023-01-29T07:26:21.624Z,2.64
2023-01-29T07:28:48.167Z,2.53
2023-01-29T07:31:14.768Z,2.53
2023-01-29T07:33:43.760Z,2.52
2023-01-29T07:36:12.033Z,2.28
2023-01-29T07:38:38.641Z,2.65
2023-01-29T07:41:05.302Z,2.93
2023-01-29T07:43:32.021Z,2.82
2023-01-29T07:46:03.327Z,2.88
2023-01-29T07:48:29.890Z,3.42
2023-01-29T07:50:57.295Z,3.57
2023-01-29T07:53:24.220Z,3.62
2023-01-29T07:55:51.299Z,2.88
2023-01-29T07:58:17.928Z,2.85
2023-01-29T08:00:44.927Z,2.77
2023-01-29T08:03:17.496Z,2.75
2023-01-29T08:05:44.785Z,3.00
2023-01-29T08:08:11.347Z,3.30
2023-01-29T08:10:39.569Z,3.52
2023-01-29T08:13:07.168Z,3.84
2023-01-29T08:15:36.069Z,3.96
2023-01-29T08:18:04.741Z,4.25
2023-01-29T08:20:31.251Z,4.20
2023-01-29T08:23:03.185Z,4.02
2023-01-29T08:25:30.269Z,4.23
2023-01-29T08:27:58.319Z,4.17
2023-01-29T08:30:27.466Z,4.36
2023-01-29T08:32:53.966Z,4.55
2023-01-29T08:35:21.213Z,4.67
2023-01-29T08:37:55.291Z,4.81
2023-01-29T08:40:22.244Z,4.94
2023-01-29T08:42:48.901Z,5.01
2023-01-29T08:45:15.891Z,5.00
2023-01-29T08:47:50.032Z,5.15
2023-01-29T08:50:18.173Z,5.13
2023-01-29T08:52:45.883Z,5.04
2023-01-29T08:55:12.422Z,5.20
2023-01-29T08:57:39.362Z,5.25
2023-01-29T09:00:07.724Z,5.41
2023-01-29T09:02:34.265Z,5.44
2023-01-29T09:05:00.745Z,5.45
2023-01-29T09:07:29.327Z,5.44
2023-01-29T09:09:55.831Z,5.51
2023-01-29T09:12:22.372Z,5.56
2023-01-29T09:14:48.897Z,5.71
2023-01-29T09:17:15.477Z,5.61
2023-01-29T09:19:42.093Z,5.40
2023-01-29T09:22:10.375Z,5.44
2023-01-29T09:24:38.103Z,5.48
2023-01-29T09:27:04.606Z,5.37
2023-01-29T09:29:31.104Z,5.57
2023-01-29T09:31:57.743Z,5.63
2023-01-29T09:34:24.363Z,5.68
2023-01-29T09:36:52.240Z,5.67
2023-01-29T09:39:18.727Z,5.69
2023-01-29T09:42:14.639Z,5.65
2023-01-29T09:44:55.212Z,5.27
2023-01-29T09:47:25.595Z,5.35
2023-01-29T09:50:30.127Z,5.39
2023-01-29T09:53:16.740Z,5.73
2023-01-29T09:55:52.675Z,5.71
2023-01-29T09:58:36.119Z,5.80
2023-01-29T10:01:12.024Z,5.90
2023-01-29T10:04:03.345Z,5.95
2023-01-29T10:06:57.416Z,5.92
2023-01-29T10:09:44.993Z,5.83
2023-01-29T10:12:31.299Z,6.00
2023-01-29T10:15:04.593Z,6.04
2023-01-29T10:18:16.458Z,6.12
2023-01-29T10:21:17.198Z,6.02
2023-01-29T10:23:54.546Z,5.71
2023-01-29T10:26:27.039Z,5.79
2023-01-29T10:28:58.634Z,5.58
2023-01-29T10:31:31.771Z,5.55
2023-01-29T10:34:14.670Z,5.35
2023-01-29T10:36:47.425Z,5.77
2023-01-29T10:39:22.177Z,5.87
2023-01-29T10:42:19.126Z,5.94
2023-01-29T10:45:17.154Z,5.95
2023-01-29T10:48:11.789Z,6.15
2023-01-29T10:50:54.902Z,6.18
2023-01-29T10:53:43.929Z,6.30
2023-01-29T10:56:30.205Z,5.96
2023-01-29T10:59:04.158Z,6.23
2023-01-29T11:01:31.430Z,6.20
2023-01-29T11:04:04.396Z,6.40
2023-01-29T11:06:35.595Z,6.41
2023-01-29T11:09:23.721Z,6.44
2023-01-29T11:11:53.761Z,6.51
2023-01-29T11:14:34.311Z,6.20
2023-01-29T11:17:00.892Z,6.33
2023-01-29T11:19:40.201Z,6.29
2023-01-29T11:22:16.805Z,6.34
2023-01-29T11:24:44.230Z,6.26
2023-01-29T11:27:24.262Z,6.39
2023-01-29T11:29:53.790Z,6.25
2023-01-29T11:32:21.255Z,6.26
2023-01-29T11:35:03.882Z,6.13
2023-01-29T11:37:36.737Z,6.28
2023-01-29T11:40:36.770Z,6.06
2023-01-29T11:43:29.172Z,6.20
2023-01-29T11:46:05.961Z,6.25
2023-01-29T11:48:49.196Z,6.09
2023-01-29T11:51:27.690Z,6.31
2023-01-29T11:54:02.733Z,6.33
2023-01-29T11:56:38.884Z,6.37
2023-01-29T11:59:05.870Z,6.34
2023-01-29T12:01:35.316Z,6.34
2023-01-29T12:04:04.319Z,6.25
2023-01-29T12:06:40.812Z,6.15
2023-01-29T12:09:18.140Z,6.27
2023-01-29T12:11:44.888Z,6.20
2023-01-29T12:14:33.620Z,6.17
2023-01-29T12:17:21.771Z,6.48
2023-01-29T12:20:00.380Z,6.56
2023-01-29T12:22:59.368Z,6.60
2023-01-29T12:25:35.702Z,6.12
2023-01-29T12:28:28.252Z,5.90
2023-01-29T12:31:08.407Z,6.08
2023-01-29T12:33:51.926Z,5.90
2023-01-29T12:37:01.439Z,5.70
2023-01-29T12:39:27.947Z,5.96
2023-01-29T12:42:04.602Z,5.91
2023-01-29T12:44:38.870Z,6.26
2023-01-29T12:47:12.365Z,6.37
2023-01-29T12:49:41.743Z,6.56
2023-01-29T12:52:28.565Z,6.47
2023-01-29T12:55:06.150Z,6.59
2023-01-29T12:57:43.938Z,6.67
2023-01-29T13:00:20.268Z,6.37
2023-01-29T13:02:57.981Z,6.19
2023-01-29T13:05:50.964Z,6.39
2023-01-29T13:08:41.122Z,6.39
2023-01-29T13:11:23.965Z,6.43
2023-01-29T13:14:06.776Z,6.61
2023-01-29T13:16:43.585Z,6.72
2023-01-29T13:19:23.894Z,6.86
2023-01-29T13:21:54.500Z,7.00
2023-01-29T13:24:25.289Z,6.72
2023-01-29T13:26:52.032Z,6.60
2023-01-29T13:29:29.065Z,6.67
2023-01-29T13:32:02.163Z,6.68
2023-01-29T13:34:37.880Z,6.76
2023-01-29T13:37:16.282Z,6.56
2023-01-29T13:39:52.439Z,6.66
2023-01-29T13:42:39.048Z,6.53
2023-01-29T13:45:09.036Z,6.34
2023-01-29T13:47:39.236Z,6.42
2023-01-29T13:50:21.216Z,6.53
2023-01-29T13:53:03.174Z,6.54
2023-01-29T13:55:33.508Z,6.45
2023-01-29T13:58:17.344Z,6.49
2023-01-29T14:00:43.796Z,6.48
2023-01-29T14:03:10.247Z,6.59
2023-01-29T14:05:54.933Z,6.61
2023-01-29T14:08:45.291Z,6.68
2023-01-29T14:11:14.710Z,6.52
2023-01-29T14:13:47.241Z,6.52
2023-01-29T14:16:13.749Z,6.32
2023-01-29T14:19:01.732Z,6.59
2023-01-29T14:21:32.684Z,6.55
2023-01-29T14:24:19.931Z,6.47
2023-01-29T14:26:52.789Z,6.30
2023-01-29T14:29:34.230Z,5.97
2023-01-29T14:32:18.573Z,5.60
2023-01-29T14:34:50.179Z,5.35
2023-01-29T14:37:17.816Z,5.48
2023-01-29T14:39:58.123Z,4.93
2023-01-29T14:42:32.032Z,4.51
2023-01-29T14:45:30.093Z,4.23
2023-01-29T14:48:16.808Z,3.41
2023-01-29T14:50:50.929Z,3.67
2023-01-29T14:53:45.267Z,3.66
2023-01-29T14:56:19.062Z,3.84
2023-01-29T14:58:50.931Z,3.38
2023-01-29T15:01:33.449Z,3.36
2023-01-29T15:04:05.628Z,3.12
2023-01-29T15:06:54.958Z,2.71
2023-01-29T15:09:36.650Z,3.16
2023-01-29T15:12:18.608Z,3.29
2023-01-29T15:15:15.867Z,2.96
2023-01-29T15:18:01.728Z,3.26
2023-01-29T15:20:37.124Z,3.72
2023-01-29T15:23:30.084Z,4.00
2023-01-29T15:26:00.318Z,4.29
2023-01-29T15:28:30.076Z,4.58
2023-01-29T15:30:59.305Z,4.32
2023-01-29T15:33:29.784Z,4.07
2023-01-29T15:36:08.538Z,4.13
2023-01-29T15:38:35.904Z,3.96
2023-01-29T15:41:16.355Z,4.00
2023-01-29T15:43:57.682Z,3.86
2023-01-29T15:46:28.436Z,3.54
2023-01-29T15:48:57.544Z,3.84
2023-01-29T15:51:41.706Z,4.10
2023-01-29T15:54:15.937Z,4.07
2023-01-29T15:56:47.887Z,4.19
2023-01-29T15:59:29.222Z,3.92
2023-01-29T16:01:55.857Z,4.43
2023-01-29T16:04:29.263Z,4.32
2023-01-29T16:07:00.207Z,4.02
2023-01-29T16:09:28.982Z,3.96
2023-01-29T16:11:59.057Z,4.02
2023-01-29T16:14:28.398Z,3.56
2023-01-29T16:16:55.045Z,3.48
2023-01-29T16:19:28.282Z,2.97
2023-01-29T16:22:08.398Z,2.53
2023-01-29T16:24:38.106Z,2.25
2023-01-29T16:27:14.034Z,2.38
2023-01-29T16:29:41.083Z,2.70
2023-01-29T16:32:09.179Z,3.01
2023-01-29T16:34:39.083Z,3.12
2023-01-29T16:37:28.216Z,3.53
2023-01-29T16:39:55.680Z,4.00
2023-01-29T16:42:28.271Z,4.37
2023-01-29T16:45:03.924Z,4.39
2023-01-29T16:47:38.838Z,4.46
2023-01-29T16:50:17.376Z,4.56
2023-01-29T16:53:01.554Z,4.76
2023-01-29T16:55:39.610Z,4.90
2023-01-29T16:58:18.856Z,5.02
2023-01-29T17:00:50.420Z,5.00
2023-01-29T17:03:19.308Z,5.15
2023-01-29T17:05:47.350Z,5.22
2023-01-29T17:08:25.033Z,5.27
2023-01-29T17:10:52.321Z,5.14
2023-01-29T17:13:25.635Z,5.28
2023-01-29T17:15:52.375Z,5.38
2023-01-29T17:18:24.354Z,5.44
2023-01-29T17:20:51.875Z,5.46
2023-01-29T17:23:18.854Z,5.51
2023-01-29T17:25:51.845Z,5.52
2023-01-29T17:28:18.566Z,5.57
2023-01-29T17:30:56.671Z,5.52
2023-01-29T17:33:26.970Z,5.53
2023-01-29T17:35:53.624Z,5.51
2023-01-29T17:38:26.001Z,5.50
2023-01-29T17:41:08.476Z,5.40
2023-01-29T17:43:35.065Z,5.38
2023-01-29T17:46:01.620Z,5.39
2023-01-29T17:48:29.815Z,5.49
2023-01-29T17:51:00.587Z,5.46
2023-01-29T17:53:43.238Z,5.41
2023-01-29T17:56:20.041Z,5.38
2023-01-29T17:58:46.522Z,5.30
2023-01-29T18:01:13.063Z,5.34
2023-01-29T18:03:42.686Z,5.23
2023-01-29T18:06:11.632Z,5.16
2023-01-29T18:08:39.646Z,4.96
2023-01-29T18:11:06.481Z,4.96
2023-01-29T18:13:33.057Z,4.95
2023-01-29T18:15:59.731Z,4.95
2023-01-29T18:18:26.245Z,4.94
2023-01-29T18:20:52.804Z,4.99
2023-01-29T18:23:19.296Z,4.94
2023-01-29T18:25:45.943Z,4.71
2023-01-29T18:28:17.620Z,4.76
2023-01-29T18:30:47.079Z,4.58
2023-01-29T18:33:14.734Z,4.61
2023-01-29T18:35:41.288Z,4.64
2023-01-29T18:38:07.788Z,4.51
2023-01-29T18:40:34.521Z,4.55
2023-01-29T18:43:01.030Z,4.54
2023-01-29T18:45:28.573Z,4.46
2023-01-29T18:47:55.683Z,4.38
2023-01-29T18:50:22.183Z,4.39
2023-01-29T18:52:49.398Z,4.31
2023-01-29T18:55:16.328Z,4.31
2023-01-29T18:58:26.124Z,4.49
2023-01-29T19:00:29.518Z,4.28
2023-01-29T19:02:56.009Z,4.28
2023-01-29T19:05:22.546Z,4.36
2023-01-29T19:07:48.992Z,4.28
2023-01-29T19:10:15.825Z,4.34
2023-01-29T19:12:42.990Z,4.41
2023-01-29T19:15:11.793Z,4.38
2023-01-29T19:17:38.729Z,4.35
2023-01-29T19:20:05.462Z,4.20
2023-01-29T19:22:34.252Z,4.07
2023-01-29T19:25:00.715Z,4.17
2023-01-29T19:27:27.236Z,4.12
2023-01-29T19:29:53.717Z,4.16
2023-01-29T19:32:20.221Z,4.10
2023-01-29T19:34:46.671Z,4.04
2023-01-29T19:37:16.124Z,4.20
2023-01-29T19:39:42.652Z,4.19
2023-01-29T19:42:09.115Z,4.24
2023-01-29T19:44:35.657Z,4.03
2023-01-29T19:47:02.300Z,3.69
2023-01-29T19:49:29.263Z,3.66
2023-01-29T19:51:55.758Z,3.20
2023-01-29T19:54:22.235Z,3.08
2023-01-29T19:56:48.708Z,2.90
2023-01-29T19:59:15.167Z,2.64
2023-01-29T20:01:41.640Z,2.64
2023-01-29T20:04:08.143Z,2.92
2023-01-29T20:06:34.780Z,2.96
2023-01-29T20:09:01.285Z,2.81
2023-01-29T20:11:27.784Z,2.79
2023-01-29T20:13:56.583Z,2.90
2023-01-29T20:16:24.878Z,2.90
2023-01-29T20:18:51.727Z,2.77
2023-01-29T20:21:20.309Z,2.69
2023-01-29T20:23:50.042Z,2.80
2023-01-29T20:26:17.757Z,2.79
2023-01-29T20:28:48.107Z,2.67
2023-01-29T20:31:15.762Z,2.46
2023-01-29T20:33:42.353Z,2.35
2023-01-29T20:36:12.086Z,2.13
2023-01-29T20:38:38.661Z,2.27
2023-01-29T20:41:16.973Z,2.52
2023-01-29T20:43:44.887Z,2.57
2023-01-29T20:46:11.972Z,2.74
2023-01-29T20:48:38.655Z,2.68
2023-01-29T20:51:10.847Z,2.83
2023-01-29T20:53:37.691Z,2.95
2023-01-29T20:56:05.194Z,2.85
2023-01-29T20:58:35.722Z,2.93
2023-01-29T21:01:07.935Z,3.03
2023-01-29T21:03:34.590Z,3.12
2023-01-29T21:06:01.097Z,3.12
2023-01-29T21:08:27.616Z,3.11
2023-01-29T21:10:54.271Z,3.30
2023-01-29T21:13:20.759Z,3.34
2023-01-29T21:15:50.143Z,3.38
2023-01-29T21:18:16.953Z,3.46
2023-01-29T21:20:43.440Z,3.36
2023-01-29T21:23:10.334Z,3.40
2023-01-29T21:25:36.919Z,3.28
2023-01-29T21:28:03.460Z,3.30
2023-01-29T21:30:31.585Z,3.31
2023-01-29T21:32:58.062Z,3.25
2023-01-29T21:35:26.775Z,3.34
2023-01-29T21:37:53.308Z,3.34
2023-01-29T21:40:20.184Z,3.40
2023-01-29T21:42:58.024Z,3.42
2023-01-29T21:45:24.585Z,3.46
2023-01-29T21:47:56.811Z,3.46
2023-01-29T21:50:29.691Z,3.35
2023-01-29T21:52:56.260Z,3.28
2023-01-29T21:55:22.806Z,3.35
2023-01-29T21:57:49.403Z,3.29
2023-01-29T22:00:17.020Z,3.29
2023-01-29T22:02:43.860Z,3.31
2023-01-29T22:05:18.689Z,3.22
2023-01-29T22:07:46.609Z,3.36
2023-01-29T22:10:13.232Z,3.38
2023-01-29T22:12:42.268Z,3.30
2023-01-29T22:15:09.314Z,3.39
2023-01-29T22:17:36.106Z,3.35
2023-01-29T22:20:02.612Z,3.38
2023-01-29T22:22:29.153Z,3.37
2023-01-29T22:24:55.603Z,3.28
2023-01-29T22:27:22.068Z,3.26
2023-01-29T22:29:48.561Z,3.16
2023-01-29T22:32:15.087Z,3.19
2023-01-29T22:34:41.565Z,3.22
2023-01-29T22:37:08.072Z,3.25
2023-01-29T22:39:34.560Z,3.23
2023-01-29T22:42:01.060Z,3.11
2023-01-29T22:44:27.604Z,3.26
2023-01-29T22:46:54.127Z,3.38
2023-01-29T22:49:20.615Z,3.44
2023-01-29T22:51:47.152Z,3.40
2023-01-29T22:54:13.824Z,3.39
2023-01-29T22:56:40.335Z,3.42
2023-01-29T22:59:06.786Z,3.53
2023-01-29T23:01:33.309Z,3.53
2023-01-29T23:03:59.827Z,3.64
2023-01-29T23:06:26.420Z,3.70
2023-01-29T23:08:53.054Z,3.72
2023-01-29T23:11:21.080Z,3.81
2023-01-29T23:13:53.167Z,3.75
2023-01-29T23:16:22.895Z,3.60
2023-01-29T23:18:53.321Z,3.67
2023-01-29T23:21:22.264Z,3.82
2023-01-29T23:23:49.144Z,3.87
2023-01-29T23:26:15.652Z,3.83
2023-01-29T23:28:42.806Z,3.95
2023-01-29T23:31:09.377Z,4.06
2023-01-29T23:33:35.868Z,4.06
2023-01-29T23:36:02.428Z,4.19
2023-01-29T23:38:28.941Z,4.20
2023-01-29T23:40:55.462Z,4.18
2023-01-29T23:43:21.926Z,4.29
2023-01-29T23:45:48.424Z,4.26
2023-01-29T23:48:15.281Z,4.31
2023-01-29T23:50:41.779Z,4.35
2023-01-29T23:53:08.347Z,4.38
2023-01-29T23:55:34.947Z,4.26
2023-01-29T23:58:01.423Z,4.28
